createdAt,value
2018-09-26T00:03:17.385Z,95.80
2018-09-26T00:08:21.104Z,96.50
2018-09-26T00:13:24.676Z,97.00
2018-09-26T00:18:28.462Z,95.90
2018-09-26T00:23:32.131Z,97.60
2018-09-26T00:28:35.767Z,97.80
2018-09-26T00:33:39.470Z,97.60
2018-09-26T00:38:43.047Z,97.80
2018-09-26T00:43:46.679Z,98.10
2018-09-26T00:48:50.207Z,98.10
2018-09-26T00:53:53.802Z,98.30
2018-09-26T00:58:57.446Z,98.40
2018-09-26T01:04:00.982Z,98.70
2018-09-26T01:09:06.082Z,98.40
2018-09-26T01:14:09.782Z,98.60
2018-09-26T01:19:14.090Z,97.20
2018-09-26T01:24:17.661Z,97.60
2018-09-26T01:29:21.298Z,98.00
2018-09-26T01:34:25.910Z,98.70
2018-09-26T01:39:29.461Z,98.70
2018-09-26T01:44:33.071Z,98.90
2018-09-26T01:49:36.674Z,99.00
2018-09-26T01:54:41.279Z,98.90
2018-09-26T01:59:44.978Z,98.90
2018-09-26T02:04:48.518Z,98.60
2018-09-26T02:09:52.179Z,97.30
2018-09-26T02:14:56.271Z,97.80
2018-09-26T02:20:00.066Z,98.40
2018-09-26T02:25:03.750Z,98.70
2018-09-26T02:30:08.458Z,98.90
2018-09-26T02:35:12.047Z,98.90
2018-09-26T02:40:15.613Z,99.30
2018-09-26T02:45:19.228Z,99.40
2018-09-26T02:50:22.882Z,98.80
2018-09-26T02:55:26.475Z,97.00
2018-09-26T03:00:30.058Z,98.80
2018-09-26T03:05:33.599Z,99.80
2018-09-26T03:10:37.306Z,99.90
2018-09-26T03:15:40.872Z,99.90
2018-09-26T03:20:44.573Z,99.90
2018-09-26T03:25:48.169Z,99.80
2018-09-26T03:30:51.758Z,99.90
2018-09-26T03:35:55.356Z,99.80
2018-09-26T03:40:58.944Z,99.90
2018-09-26T03:46:08.328Z,99.90
2018-09-26T03:51:11.922Z,99.90
2018-09-26T03:56:15.514Z,99.90
2018-09-26T04:01:19.116Z,99.90
2018-09-26T04:06:22.909Z,99.90
2018-09-26T04:11:26.470Z,99.90
2018-09-26T04:16:30.135Z,99.90
2018-09-26T04:21:35.782Z,99.90
2018-09-26T04:26:40.498Z,99.90
2018-09-26T04:31:44.068Z,99.90
2018-09-26T04:36:47.622Z,99.90
2018-09-26T04:41:51.322Z,99.90
2018-09-26T04:46:54.991Z,99.90
2018-09-26T04:51:58.587Z,99.90
2018-09-26T04:57:02.597Z,99.90
2018-09-26T05:02:09.450Z,99.90
2018-09-26T05:07:13.071Z,99.90
2018-09-26T05:12:16.734Z,99.60
2018-09-26T05:17:21.308Z,99.90
2018-09-26T05:22:25.122Z,99.90
2018-09-26T05:27:28.685Z,99.30
2018-09-26T05:32:32.277Z,99.60
2018-09-26T05:37:36.168Z,99.90
2018-09-26T05:42:39.863Z,99.90
2018-09-26T05:47:43.466Z,99.90
2018-09-26T05:52:47.118Z,99.90
2018-09-26T05:57:50.683Z,99.90
2018-09-26T06:02:55.414Z,99.90
2018-09-26T06:07:59.432Z,99.90
2018-09-26T06:13:03.092Z,99.90
2018-09-26T06:18:07.428Z,99.90
2018-09-26T06:23:11.242Z,99.40
2018-09-26T06:28:15.003Z,99.30
2018-09-26T06:33:18.902Z,99.90
2018-09-26T06:38:23.701Z,99.90
2018-09-26T06:43:27.274Z,99.90
2018-09-26T06:48:30.859Z,99.90
2018-09-26T06:53:35.157Z,99.90
2018-09-26T06:58:39.894Z,99.90
2018-09-26T07:03:43.638Z,99.80
2018-09-26T07:08:48.198Z,99.90
2018-09-26T07:13:52.863Z,99.90
2018-09-26T07:18:56.442Z,99.90
2018-09-26T07:24:00.207Z,99.90
2018-09-26T07:29:03.873Z,99.90
2018-09-26T07:34:07.542Z,99.90
2018-09-26T07:39:12.694Z,99.90
2018-09-26T07:44:16.264Z,99.90
2018-09-26T07:49:19.831Z,99.90
2018-09-26T07:54:25.668Z,99.90
2018-09-26T07:59:29.289Z,99.90
2018-09-26T08:04:32.841Z,99.30
2018-09-26T08:09:37.438Z,99.60
2018-09-26T08:14:40.954Z,99.10
2018-09-26T08:19:46.628Z,98.20
2018-09-26T08:24:50.331Z,96.00
2018-09-26T08:29:54.020Z,95.30
2018-09-26T08:34:57.668Z,93.50
2018-09-26T08:45:08.567Z,85.60
2018-09-26T08:50:13.287Z,89.00
2018-09-26T08:55:20.975Z,81.00
2018-09-26T09:00:29.881Z,77.20
2018-09-26T09:05:33.434Z,75.10
2018-09-26T09:10:39.082Z,78.50
2018-09-26T09:15:42.733Z,73.60
2018-09-26T09:20:46.395Z,72.00
2018-09-26T09:25:51.349Z,68.90
2018-09-26T09:30:54.992Z,72.30
2018-09-26T09:35:58.591Z,70.20
2018-09-26T09:41:02.212Z,72.30
2018-09-26T09:46:06.482Z,71.80
2018-09-26T09:51:10.501Z,63.50
2018-09-26T09:56:14.242Z,69.60
2018-09-26T10:01:24.210Z,66.80
2018-09-26T10:06:28.662Z,64.80
2018-09-26T10:11:32.227Z,66.30
2018-09-26T10:16:37.132Z,66.70
2018-09-26T10:21:41.859Z,66.10
2018-09-26T10:26:48.468Z,74.50
2018-09-26T10:31:52.546Z,67.70
2018-09-26T10:36:56.155Z,67.30
2018-09-26T10:41:59.847Z,63.50
2018-09-26T10:47:03.446Z,65.20
2018-09-26T10:52:07.082Z,71.10
2018-09-26T10:57:11.714Z,65.20
2018-09-26T11:02:17.071Z,66.60
2018-09-26T11:07:21.131Z,65.00
2018-09-26T11:12:25.404Z,67.00
2018-09-26T11:17:29.287Z,65.00
2018-09-26T11:22:32.927Z,62.60
2018-09-26T11:27:40.342Z,62.60
2018-09-26T11:32:45.010Z,61.90
2018-09-26T11:37:48.644Z,61.90
2018-09-26T11:42:52.326Z,65.70
2018-09-26T11:47:55.955Z,63.40
2018-09-26T11:52:59.627Z,64.80
2018-09-26T11:58:05.328Z,63.30
2018-09-26T12:03:10.288Z,64.90
2018-09-26T12:08:14.938Z,66.60
2018-09-26T12:13:19.209Z,67.80
2018-09-26T12:18:23.352Z,61.20
2018-09-26T12:23:27.618Z,61.60
2018-09-26T12:28:34.047Z,62.20
2018-09-26T12:33:37.993Z,62.70
2018-09-26T12:38:41.869Z,67.60
2018-09-26T12:43:46.811Z,63.50
2018-09-26T12:48:50.751Z,62.50
2018-09-26T12:53:54.671Z,62.10
2018-09-26T12:59:02.738Z,63.30
2018-09-26T13:04:09.115Z,61.70
2018-09-26T13:09:12.792Z,61.50
2018-09-26T13:14:18.464Z,63.40
2018-09-26T13:19:23.058Z,61.00
2018-09-26T13:24:27.716Z,63.30
2018-09-26T13:29:34.250Z,59.70
2018-09-26T13:34:38.207Z,61.00
2018-09-26T13:39:46.626Z,61.20
2018-09-26T13:44:50.222Z,62.90
2018-09-26T13:49:59.222Z,66.60
2018-09-26T13:55:02.862Z,58.60
2018-09-26T14:00:06.844Z,59.80
2018-09-26T14:05:18.915Z,64.80
2018-09-26T14:10:22.574Z,58.40
2018-09-26T14:15:29.465Z,58.30
2018-09-26T14:20:34.306Z,59.00
2018-09-26T14:25:37.941Z,57.80
2018-09-26T14:30:41.968Z,62.10
2018-09-26T14:35:45.410Z,60.00
2018-09-26T14:40:49.102Z,59.30
2018-09-26T14:45:52.882Z,55.30
2018-09-26T14:50:56.559Z,64.80
2018-09-26T14:56:00.531Z,56.90
2018-09-26T15:01:04.298Z,67.60
2018-09-26T15:06:07.952Z,53.20
2018-09-26T15:11:11.610Z,55.90
2018-09-26T15:16:15.821Z,57.40
2018-09-26T15:21:19.618Z,64.90
2018-09-26T15:26:23.416Z,60.00
2018-09-26T15:31:28.047Z,56.30
2018-09-26T15:36:31.850Z,65.70
2018-09-26T15:41:35.638Z,65.30
2018-09-26T15:46:39.274Z,64.30
2018-09-26T15:51:42.867Z,63.50
2018-09-26T15:56:46.574Z,64.60
2018-09-26T16:01:50.268Z,68.40
2018-09-26T16:06:55.001Z,63.30
2018-09-26T16:11:59.634Z,67.00
2018-09-26T16:17:03.370Z,72.60
2018-09-26T16:22:07.177Z,69.50
2018-09-26T16:27:10.773Z,70.00
2018-09-26T16:32:14.605Z,70.60
2018-09-26T16:37:18.136Z,72.30
2018-09-26T16:42:21.816Z,72.70
2018-09-26T16:47:26.016Z,76.70
2018-09-26T16:52:33.567Z,75.70
2018-09-26T16:57:37.695Z,73.70
2018-09-26T17:02:42.625Z,74.30
2018-09-26T17:07:47.059Z,74.80
2018-09-26T17:12:51.038Z,75.90
2018-09-26T17:17:55.041Z,82.50
2018-09-26T17:22:58.980Z,83.30
2018-09-26T17:28:02.846Z,85.70
2018-09-26T17:33:07.129Z,85.60
2018-09-26T17:38:11.818Z,84.50
2018-09-26T17:43:15.398Z,87.50
2018-09-26T17:48:18.933Z,88.20
2018-09-26T17:53:22.590Z,90.10
2018-09-26T17:58:26.305Z,90.70
2018-09-26T18:03:29.884Z,90.90
2018-09-26T18:08:33.533Z,91.70
2018-09-26T18:13:38.266Z,92.20
2018-09-26T18:18:41.911Z,93.10
2018-09-26T18:23:45.745Z,93.80
2018-09-26T18:28:50.713Z,94.20
2018-09-26T18:33:55.530Z,94.30
2018-09-26T18:38:59.519Z,95.00
2018-09-26T18:44:03.270Z,93.80
2018-09-26T18:49:07.958Z,93.30
2018-09-26T18:54:12.676Z,94.40
2018-09-26T18:59:17.403Z,93.90
2018-09-26T19:04:21.078Z,95.10
2018-09-26T19:09:24.966Z,94.80
2018-09-26T19:14:29.654Z,94.40
2018-09-26T19:19:33.405Z,95.40
2018-09-26T19:24:38.046Z,95.90
2018-09-26T19:29:42.756Z,95.20
2018-09-26T19:34:47.471Z,95.40
2018-09-26T19:39:51.160Z,95.90
2018-09-26T19:44:55.810Z,96.30
2018-09-26T19:49:59.471Z,95.50
2018-09-26T19:55:03.126Z,95.20
2018-09-26T20:00:07.227Z,96.00
2018-09-26T20:05:10.986Z,95.60
2018-09-26T20:10:14.869Z,95.00
2018-09-26T20:15:19.511Z,96.50
2018-09-26T20:20:23.215Z,96.60
2018-09-26T20:25:26.835Z,96.30
2018-09-26T20:30:30.576Z,95.20
2018-09-26T20:35:34.587Z,95.50
2018-09-26T20:40:38.226Z,97.60
2018-09-26T20:45:45.438Z,96.80
2018-09-26T20:50:49.654Z,96.40
2018-09-26T20:55:55.397Z,96.30
2018-09-26T21:01:01.219Z,97.60
2018-09-26T21:06:04.899Z,96.50
2018-09-26T21:11:08.688Z,96.90
2018-09-26T21:16:14.335Z,97.80
2018-09-26T21:21:18.285Z,97.50
2018-09-26T21:26:24.071Z,97.60
2018-09-26T21:31:27.797Z,97.60
2018-09-26T21:36:31.486Z,96.70
2018-09-26T21:41:35.092Z,96.20
2018-09-26T21:46:38.731Z,96.80
2018-09-26T21:51:42.338Z,98.20
2018-09-26T21:56:46.158Z,98.50
2018-09-26T22:01:49.735Z,97.20
2018-09-26T22:06:53.320Z,96.50
2018-09-26T22:11:56.954Z,98.10
2018-09-26T22:17:00.561Z,98.90
2018-09-26T22:22:04.295Z,99.10
2018-09-26T22:27:07.937Z,97.50
2018-09-26T22:32:18.407Z,97.50
2018-09-26T22:37:21.987Z,98.10
2018-09-26T22:42:25.712Z,98.20
2018-09-26T22:47:29.394Z,98.00
2018-09-26T22:52:32.999Z,98.50
2018-09-26T22:57:38.866Z,97.30
2018-09-26T23:02:42.496Z,98.60
2018-09-26T23:07:48.159Z,99.20
2018-09-26T23:12:51.742Z,99.40
2018-09-26T23:17:55.263Z,98.10
2018-09-26T23:22:58.955Z,98.70
2018-09-26T23:28:02.501Z,99.20
2018-09-26T23:33:06.027Z,99.80
2018-09-26T23:38:11.714Z,99.30
2018-09-26T23:43:15.251Z,99.20
2018-09-26T23:48:18.850Z,98.40
2018-09-26T23:53:22.457Z,98.40
2018-09-26T23:58:29.482Z,99.40
